sensor_id;sensor_type;location;lat;lon;timestamp;temperature;humidity
9800;DHT22;4939;52.00085300;4.17406100;2023-04-03T00:01:15;5.50;99.90
9800;DHT22;4939;52.00085300;4.17406100;2023-04-03T00:06:07;5.50;99.90
9800;DHT22;4939;52.00085300;4.17406100;2023-04-03T00:08:34;5.40;99.90
9800;DHT22;4939;52.00085300;4.17406100;2023-04-03T00:11:01;5.40;99.90
9800;DHT22;4939;52.00085300;4.17406100;2023-04-03T00:13:28;5.40;99.90
9800;DHT22;4939;52.00085300;4.17406100;2023-04-03T00:15:53;5.40;99.90
9800;DHT22;4939;52.00085300;4.17406100;2023-04-03T00:18:20;5.40;99.90
9800;DHT22;4939;52.00085300;4.17406100;2023-04-03T00:20:46;5.40;99.90
9800;DHT22;4939;52.00085300;4.17406100;2023-04-03T00:23:11;5.30;99.90
9800;DHT22;4939;52.00085300;4.17406100;2023-04-03T00:25:37;5.30;99.90
9800;DHT22;4939;52.00085300;4.17406100;2023-04-03T00:28:04;5.30;99.90
9800;DHT22;4939;52.00085300;4.17406100;2023-04-03T00:30:30;5.30;99.90
9800;DHT22;4939;52.00085300;4.17406100;2023-04-03T00:32:56;5.30;99.90
9800;DHT22;4939;52.00085300;4.17406100;2023-04-03T00:35:23;5.20;99.90
9800;DHT22;4939;52.00085300;4.17406100;2023-04-03T00:37:53;5.30;99.90
9800;DHT22;4939;52.00085300;4.17406100;2023-04-03T00:40:20;5.20;99.90
9800;DHT22;4939;52.00085300;4.17406100;2023-04-03T00:42:48;5.20;99.90
9800;DHT22;4939;52.00085300;4.17406100;2023-04-03T00:45:27;5.20;99.90
9800;DHT22;4939;52.00085300;4.17406100;2023-04-03T00:47:54;5.10;99.90
9800;DHT22;4939;52.00085300;4.17406100;2023-04-03T00:50:20;5.10;99.90
9800;DHT22;4939;52.00085300;4.17406100;2023-04-03T00:52:47;5.10;99.90
9800;DHT22;4939;52.00085300;4.17406100;2023-04-03T00:55:15;5.10;99.90
9800;DHT22;4939;52.00085300;4.17406100;2023-04-03T00:57:42;5.10;99.90
9800;DHT22;4939;52.00085300;4.17406100;2023-04-03T01:00:11;5.10;99.90
9800;DHT22;4939;52.00085300;4.17406100;2023-04-03T01:02:38;5.10;99.90
9800;DHT22;4939;52.00085300;4.17406100;2023-04-03T01:05:06;5.00;99.90
9800;DHT22;4939;52.00085300;4.17406100;2023-04-03T01:07:32;5.00;99.90
9800;DHT22;4939;52.00085300;4.17406100;2023-04-03T01:10:02;5.00;99.90
9800;DHT22;4939;52.00085300;4.17406100;2023-04-03T01:12:31;4.90;99.90
9800;DHT22;4939;52.00085300;4.17406100;2023-04-03T01:17:42;5.00;99.90
9800;DHT22;4939;52.00085300;4.17406100;2023-04-03T01:28:18;4.80;99.90
9800;DHT22;4939;52.00085300;4.17406100;2023-04-03T01:33:42;4.80;99.90
9800;DHT22;4939;52.00085300;4.17406100;2023-04-03T01:36:09;4.80;99.90
9800;DHT22;4939;52.00085300;4.17406100;2023-04-03T01:38:35;4.80;99.90
9800;DHT22;4939;52.00085300;4.17406100;2023-04-03T01:41:01;4.70;99.90
9800;DHT22;4939;52.00085300;4.17406100;2023-04-03T01:45:53;4.70;99.90
9800;DHT22;4939;52.00085300;4.17406100;2023-04-03T01:48:20;4.60;99.90
9800;DHT22;4939;52.00085300;4.17406100;2023-04-03T01:50:46;4.60;99.90
9800;DHT22;4939;52.00085300;4.17406100;2023-04-03T01:53:12;4.60;99.90
9800;DHT22;4939;52.00085300;4.17406100;2023-04-03T01:55:38;4.60;99.90
9800;DHT22;4939;52.00085300;4.17406100;2023-04-03T01:58:04;4.60;99.90
9800;DHT22;4939;52.00085300;4.17406100;2023-04-03T02:00:30;4.50;99.90
9800;DHT22;4939;52.00085300;4.17406100;2023-04-03T02:02:56;4.50;99.90
9800;DHT22;4939;52.00085300;4.17406100;2023-04-03T02:05:22;4.50;99.90
9800;DHT22;4939;52.00085300;4.17406100;2023-04-03T02:07:54;4.50;99.90
9800;DHT22;4939;52.00085300;4.17406100;2023-04-03T02:10:33;4.40;99.90
9800;DHT22;4939;52.00085300;4.17406100;2023-04-03T02:12:59;4.40;99.90
9800;DHT22;4939;52.00085300;4.17406100;2023-04-03T02:15:25;4.40;99.90
9800;DHT22;4939;52.00085300;4.17406100;2023-04-03T02:17:50;4.40;99.90
9800;DHT22;4939;52.00085300;4.17406100;2023-04-03T02:20:17;4.30;99.90
9800;DHT22;4939;52.00085300;4.17406100;2023-04-03T02:22:43;4.30;99.90
9800;DHT22;4939;52.00085300;4.17406100;2023-04-03T02:25:09;4.30;99.90
9800;DHT22;4939;52.00085300;4.17406100;2023-04-03T02:27:36;4.30;99.90
9800;DHT22;4939;52.00085300;4.17406100;2023-04-03T02:30:03;4.20;99.90
9800;DHT22;4939;52.00085300;4.17406100;2023-04-03T02:32:29;4.20;99.90
9800;DHT22;4939;52.00085300;4.17406100;2023-04-03T02:34:55;4.20;99.90
9800;DHT22;4939;52.00085300;4.17406100;2023-04-03T02:37:20;4.20;99.90
9800;DHT22;4939;52.00085300;4.17406100;2023-04-03T02:39:46;4.10;99.90
9800;DHT22;4939;52.00085300;4.17406100;2023-04-03T02:42:12;4.20;99.90
9800;DHT22;4939;52.00085300;4.17406100;2023-04-03T02:44:38;4.10;99.90
9800;DHT22;4939;52.00085300;4.17406100;2023-04-03T02:47:04;4.10;99.90
9800;DHT22;4939;52.00085300;4.17406100;2023-04-03T02:49:30;4.10;99.90
9800;DHT22;4939;52.00085300;4.17406100;2023-04-03T02:51:56;4.00;99.90
9800;DHT22;4939;52.00085300;4.17406100;2023-04-03T02:54:22;4.00;99.90
9800;DHT22;4939;52.00085300;4.17406100;2023-04-03T02:56:49;4.00;99.90
9800;DHT22;4939;52.00085300;4.17406100;2023-04-03T02:59:15;4.00;99.90
9800;DHT22;4939;52.00085300;4.17406100;2023-04-03T03:04:07;3.90;99.90
9800;DHT22;4939;52.00085300;4.17406100;2023-04-03T03:06:32;3.90;99.90
9800;DHT22;4939;52.00085300;4.17406100;2023-04-03T03:08:58;3.90;99.90
9800;DHT22;4939;52.00085300;4.17406100;2023-04-03T03:11:24;3.90;99.90
9800;DHT22;4939;52.00085300;4.17406100;2023-04-03T03:13:50;3.80;99.90
9800;DHT22;4939;52.00085300;4.17406100;2023-04-03T03:16:16;3.80;99.90
9800;DHT22;4939;52.00085300;4.17406100;2023-04-03T03:18:41;3.80;99.90
9800;DHT22;4939;52.00085300;4.17406100;2023-04-03T03:21:09;3.80;99.90
9800;DHT22;4939;52.00085300;4.17406100;2023-04-03T03:23:35;3.70;99.90
9800;DHT22;4939;52.00085300;4.17406100;2023-04-03T03:26:05;3.70;99.90
9800;DHT22;4939;52.00085300;4.17406100;2023-04-03T03:28:31;3.70;99.90
9800;DHT22;4939;52.00085300;4.17406100;2023-04-03T03:30:58;3.70;99.90
9800;DHT22;4939;52.00085300;4.17406100;2023-04-03T03:33:24;3.70;99.90
9800;DHT22;4939;52.00085300;4.17406100;2023-04-03T03:35:51;3.60;99.90
9800;DHT22;4939;52.00085300;4.17406100;2023-04-03T03:38:17;3.60;99.90
9800;DHT22;4939;52.00085300;4.17406100;2023-04-03T03:40:42;3.60;99.90
9800;DHT22;4939;52.00085300;4.17406100;2023-04-03T03:48:03;3.60;99.90
9800;DHT22;4939;52.00085300;4.17406100;2023-04-03T03:50:29;3.60;99.90
9800;DHT22;4939;52.00085300;4.17406100;2023-04-03T03:52:54;3.50;99.90
9800;DHT22;4939;52.00085300;4.17406100;2023-04-03T03:55:20;3.50;99.90
9800;DHT22;4939;52.00085300;4.17406100;2023-04-03T03:57:46;3.50;99.90
9800;DHT22;4939;52.00085300;4.17406100;2023-04-03T04:00:12;3.50;99.90
9800;DHT22;4939;52.00085300;4.17406100;2023-04-03T04:02:37;3.40;99.90
9800;DHT22;4939;52.00085300;4.17406100;2023-04-03T04:05:03;3.40;99.90
9800;DHT22;4939;52.00085300;4.17406100;2023-04-03T04:07:29;3.40;99.90
9800;DHT22;4939;52.00085300;4.17406100;2023-04-03T04:09:55;3.40;99.90
9800;DHT22;4939;52.00085300;4.17406100;2023-04-03T04:12:21;3.30;99.90
9800;DHT22;4939;52.00085300;4.17406100;2023-04-03T04:14:47;3.30;99.90
9800;DHT22;4939;52.00085300;4.17406100;2023-04-03T04:17:13;3.30;99.90
9800;DHT22;4939;52.00085300;4.17406100;2023-04-03T04:19:39;3.30;99.90
9800;DHT22;4939;52.00085300;4.17406100;2023-04-03T04:22:05;3.30;99.90
9800;DHT22;4939;52.00085300;4.17406100;2023-04-03T04:24:31;3.30;99.90
9800;DHT22;4939;52.00085300;4.17406100;2023-04-03T04:26:56;3.30;99.90
9800;DHT22;4939;52.00085300;4.17406100;2023-04-03T04:29:22;3.20;99.90
9800;DHT22;4939;52.00085300;4.17406100;2023-04-03T04:31:48;3.30;99.90
9800;DHT22;4939;52.00085300;4.17406100;2023-04-03T04:34:13;3.20;99.90
9800;DHT22;4939;52.00085300;4.17406100;2023-04-03T04:36:39;3.20;99.90
9800;DHT22;4939;52.00085300;4.17406100;2023-04-03T04:39:05;3.20;99.90
9800;DHT22;4939;52.00085300;4.17406100;2023-04-03T04:41:31;3.20;99.90
9800;DHT22;4939;52.00085300;4.17406100;2023-04-03T04:43:57;3.20;99.90
9800;DHT22;4939;52.00085300;4.17406100;2023-04-03T04:46:23;3.20;99.90
9800;DHT22;4939;52.00085300;4.17406100;2023-04-03T04:48:48;3.20;99.90
9800;DHT22;4939;52.00085300;4.17406100;2023-04-03T04:51:14;3.10;99.90
9800;DHT22;4939;52.00085300;4.17406100;2023-04-03T04:53:40;3.10;99.90
9800;DHT22;4939;52.00085300;4.17406100;2023-04-03T04:56:06;3.10;99.90
9800;DHT22;4939;52.00085300;4.17406100;2023-04-03T04:58:32;3.10;99.90
9800;DHT22;4939;52.00085300;4.17406100;2023-04-03T05:01:07;3.10;99.90
9800;DHT22;4939;52.00085300;4.17406100;2023-04-03T05:03:33;3.10;99.90
9800;DHT22;4939;52.00085300;4.17406100;2023-04-03T05:05:59;3.10;99.90
9800;DHT22;4939;52.00085300;4.17406100;2023-04-03T05:08:25;3.10;99.90
9800;DHT22;4939;52.00085300;4.17406100;2023-04-03T05:10:51;3.00;99.90
9800;DHT22;4939;52.00085300;4.17406100;2023-04-03T05:13:16;3.00;99.90
9800;DHT22;4939;52.00085300;4.17406100;2023-04-03T05:15:42;3.00;99.90
9800;DHT22;4939;52.00085300;4.17406100;2023-04-03T05:20:34;3.00;99.90
9800;DHT22;4939;52.00085300;4.17406100;2023-04-03T05:23:00;3.00;99.90
9800;DHT22;4939;52.00085300;4.17406100;2023-04-03T05:25:26;3.00;99.90
9800;DHT22;4939;52.00085300;4.17406100;2023-04-03T05:27:52;3.00;99.90
9800;DHT22;4939;52.00085300;4.17406100;2023-04-03T05:30:17;3.00;99.90
9800;DHT22;4939;52.00085300;4.17406100;2023-04-03T05:32:43;3.00;99.90
9800;DHT22;4939;52.00085300;4.17406100;2023-04-03T05:35:09;3.00;99.90
9800;DHT22;4939;52.00085300;4.17406100;2023-04-03T05:37:35;3.00;99.90
9800;DHT22;4939;52.00085300;4.17406100;2023-04-03T05:40:02;3.00;99.90
9800;DHT22;4939;52.00085300;4.17406100;2023-04-03T05:42:28;3.00;99.90
9800;DHT22;4939;52.00085300;4.17406100;2023-04-03T05:47:20;3.00;99.90
9800;DHT22;4939;52.00085300;4.17406100;2023-04-03T05:49:45;3.10;99.90
9800;DHT22;4939;52.00085300;4.17406100;2023-04-03T05:52:25;3.10;99.90
9800;DHT22;4939;52.00085300;4.17406100;2023-04-03T05:54:51;3.10;99.90
9800;DHT22;4939;52.00085300;4.17406100;2023-04-03T05:57:17;3.10;99.90
9800;DHT22;4939;52.00085300;4.17406100;2023-04-03T05:59:44;3.60;99.90
9800;DHT22;4939;52.00085300;4.17406100;2023-04-03T06:02:12;5.20;99.90
9800;DHT22;4939;52.00085300;4.17406100;2023-04-03T06:04:38;3.90;99.90
9800;DHT22;4939;52.00085300;4.17406100;2023-04-03T06:07:04;4.00;99.90
9800;DHT22;4939;52.00085300;4.17406100;2023-04-03T06:09:30;4.00;99.90
9800;DHT22;4939;52.00085300;4.17406100;2023-04-03T06:11:56;4.20;99.90
9800;DHT22;4939;52.00085300;4.17406100;2023-04-03T06:14:25;4.10;99.90
9800;DHT22;4939;52.00085300;4.17406100;2023-04-03T06:16:51;4.10;99.90
9800;DHT22;4939;52.00085300;4.17406100;2023-04-03T06:19:17;4.10;99.90
9800;DHT22;4939;52.00085300;4.17406100;2023-04-03T06:21:43;4.00;99.90
9800;DHT22;4939;52.00085300;4.17406100;2023-04-03T06:24:15;4.00;99.90
9800;DHT22;4939;52.00085300;4.17406100;2023-04-03T06:29:07;3.90;99.90
9800;DHT22;4939;52.00085300;4.17406100;2023-04-03T06:31:33;3.80;99.90
9800;DHT22;4939;52.00085300;4.17406100;2023-04-03T06:33:59;3.80;99.90
9800;DHT22;4939;52.00085300;4.17406100;2023-04-03T06:36:24;3.90;99.90
9800;DHT22;4939;52.00085300;4.17406100;2023-04-03T06:38:51;3.90;99.90
9800;DHT22;4939;52.00085300;4.17406100;2023-04-03T06:41:17;3.90;99.90
9800;DHT22;4939;52.00085300;4.17406100;2023-04-03T06:43:43;4.00;99.90
9800;DHT22;4939;52.00085300;4.17406100;2023-04-03T06:46:19;4.00;99.90
9800;DHT22;4939;52.00085300;4.17406100;2023-04-03T06:48:45;4.10;99.90
9800;DHT22;4939;52.00085300;4.17406100;2023-04-03T06:51:22;4.20;99.90
9800;DHT22;4939;52.00085300;4.17406100;2023-04-03T06:53:49;4.30;99.90
9800;DHT22;4939;52.00085300;4.17406100;2023-04-03T06:56:16;4.30;99.90
9800;DHT22;4939;52.00085300;4.17406100;2023-04-03T06:58:43;4.40;99.90
9800;DHT22;4939;52.00085300;4.17406100;2023-04-03T07:01:10;4.40;99.90
9800;DHT22;4939;52.00085300;4.17406100;2023-04-03T07:03:37;4.50;99.90
9800;DHT22;4939;52.00085300;4.17406100;2023-04-03T07:06:04;4.60;99.90
9800;DHT22;4939;52.00085300;4.17406100;2023-04-03T07:08:31;4.60;99.90
9800;DHT22;4939;52.00085300;4.17406100;2023-04-03T07:10:57;4.70;99.90
9800;DHT22;4939;52.00085300;4.17406100;2023-04-03T07:13:23;4.80;99.90
9800;DHT22;4939;52.00085300;4.17406100;2023-04-03T07:15:54;4.90;99.90
9800;DHT22;4939;52.00085300;4.17406100;2023-04-03T07:18:20;5.00;99.90
9800;DHT22;4939;52.00085300;4.17406100;2023-04-03T07:20:46;5.10;99.90
9800;DHT22;4939;52.00085300;4.17406100;2023-04-03T07:23:12;5.20;99.90
9800;DHT22;4939;52.00085300;4.17406100;2023-04-03T07:25:46;5.20;99.90
9800;DHT22;4939;52.00085300;4.17406100;2023-04-03T07:28:12;5.40;99.90
9800;DHT22;4939;52.00085300;4.17406100;2023-04-03T07:30:53;5.50;99.90
9800;DHT22;4939;52.00085300;4.17406100;2023-04-03T07:33:21;5.50;99.90
9800;DHT22;4939;52.00085300;4.17406100;2023-04-03T07:35:49;5.70;99.90
9800;DHT22;4939;52.00085300;4.17406100;2023-04-03T07:38:15;5.80;99.90
9800;DHT22;4939;52.00085300;4.17406100;2023-04-03T07:40:49;5.80;99.90
9800;DHT22;4939;52.00085300;4.17406100;2023-04-03T07:43:16;5.90;99.90
9800;DHT22;4939;52.00085300;4.17406100;2023-04-03T07:45:43;6.00;99.90
9800;DHT22;4939;52.00085300;4.17406100;2023-04-03T07:48:10;5.90;99.90
9800;DHT22;4939;52.00085300;4.17406100;2023-04-03T07:50:36;5.90;99.90
9800;DHT22;4939;52.00085300;4.17406100;2023-04-03T07:53:02;6.00;99.90
9800;DHT22;4939;52.00085300;4.17406100;2023-04-03T07:55:28;6.00;99.90
9800;DHT22;4939;52.00085300;4.17406100;2023-04-03T07:57:54;6.10;99.90
9800;DHT22;4939;52.00085300;4.17406100;2023-04-03T08:00:20;6.10;99.90
9800;DHT22;4939;52.00085300;4.17406100;2023-04-03T08:05:20;6.30;99.90
9800;DHT22;4939;52.00085300;4.17406100;2023-04-03T08:07:47;6.50;99.90
9800;DHT22;4939;52.00085300;4.17406100;2023-04-03T08:10:13;6.60;99.90
9800;DHT22;4939;52.00085300;4.17406100;2023-04-03T08:12:40;6.80;99.90
9800;DHT22;4939;52.00085300;4.17406100;2023-04-03T08:15:06;6.80;99.90
9800;DHT22;4939;52.00085300;4.17406100;2023-04-03T08:17:33;6.80;1.00
9800;DHT22;4939;52.00085300;4.17406100;2023-04-03T08:19:59;6.80;1.00
9800;DHT22;4939;52.00085300;4.17406100;2023-04-03T08:22:25;6.90;99.90
9800;DHT22;4939;52.00085300;4.17406100;2023-04-03T08:24:51;6.90;1.00
9800;DHT22;4939;52.00085300;4.17406100;2023-04-03T08:27:17;6.90;99.90
9800;DHT22;4939;52.00085300;4.17406100;2023-04-03T08:29:43;6.90;1.00
9800;DHT22;4939;52.00085300;4.17406100;2023-04-03T08:34:34;7.00;1.00
9800;DHT22;4939;52.00085300;4.17406100;2023-04-03T08:39:28;7.40;99.90
9800;DHT22;4939;52.00085300;4.17406100;2023-04-03T08:41:58;7.40;1.00
9800;DHT22;4939;52.00085300;4.17406100;2023-04-03T08:49:52;7.50;1.00
9800;DHT22;4939;52.00085300;4.17406100;2023-04-03T08:52:27;7.60;1.00
9800;DHT22;4939;52.00085300;4.17406100;2023-04-03T08:55:03;7.70;1.00
9800;DHT22;4939;52.00085300;4.17406100;2023-04-03T08:57:42;7.80;1.00
9800;DHT22;4939;52.00085300;4.17406100;2023-04-03T09:00:24;7.90;1.00
9800;DHT22;4939;52.00085300;4.17406100;2023-04-03T09:02:52;7.90;1.00
9800;DHT22;4939;52.00085300;4.17406100;2023-04-03T09:05:48;7.90;1.00
9800;DHT22;4939;52.00085300;4.17406100;2023-04-03T09:13:47;8.20;99.90
9800;DHT22;4939;52.00085300;4.17406100;2023-04-03T09:22:16;8.40;1.00
9800;DHT22;4939;52.00085300;4.17406100;2023-04-03T09:24:45;8.30;99.90
9800;DHT22;4939;52.00085300;4.17406100;2023-04-03T09:27:12;8.40;99.90
9800;DHT22;4939;52.00085300;4.17406100;2023-04-03T09:29:41;8.40;99.30
9800;DHT22;4939;52.00085300;4.17406100;2023-04-03T09:32:24;8.90;99.90
9800;DHT22;4939;52.00085300;4.17406100;2023-04-03T09:34:54;9.20;99.90
9800;DHT22;4939;52.00085300;4.17406100;2023-04-03T09:37:43;9.10;99.90
9800;DHT22;4939;52.00085300;4.17406100;2023-04-03T09:40:44;9.10;99.90
9800;DHT22;4939;52.00085300;4.17406100;2023-04-03T09:43:21;9.20;99.90
9800;DHT22;4939;52.00085300;4.17406100;2023-04-03T09:45:49;9.30;90.90
9800;DHT22;4939;52.00085300;4.17406100;2023-04-03T09:48:17;9.30;99.90
9800;DHT22;4939;52.00085300;4.17406100;2023-04-03T09:53:41;9.10;1.00
9800;DHT22;4939;52.00085300;4.17406100;2023-04-03T09:56:26;9.30;1.00
9800;DHT22;4939;52.00085300;4.17406100;2023-04-03T10:01:39;9.60;99.90
9800;DHT22;4939;52.00085300;4.17406100;2023-04-03T10:06:35;10.00;99.90
9800;DHT22;4939;52.00085300;4.17406100;2023-04-03T10:09:04;9.80;99.90
9800;DHT22;4939;52.00085300;4.17406100;2023-04-03T10:11:31;9.90;99.90
9800;DHT22;4939;52.00085300;4.17406100;2023-04-03T10:13:58;9.90;99.90
9800;DHT22;4939;52.00085300;4.17406100;2023-04-03T10:16:48;10.10;99.90
9800;DHT22;4939;52.00085300;4.17406100;2023-04-03T10:19:32;10.30;99.90
9800;DHT22;4939;52.00085300;4.17406100;2023-04-03T10:21:59;10.30;99.90
9800;DHT22;4939;52.00085300;4.17406100;2023-04-03T10:27:16;10.50;99.90
9800;DHT22;4939;52.00085300;4.17406100;2023-04-03T10:35:32;10.00;1.00
9800;DHT22;4939;52.00085300;4.17406100;2023-04-03T10:43:39;10.40;1.00
9800;DHT22;4939;52.00085300;4.17406100;2023-04-03T10:46:55;10.60;46.80
9800;DHT22;4939;52.00085300;4.17406100;2023-04-03T10:51:58;10.40;1.00
9800;DHT22;4939;52.00085300;4.17406100;2023-04-03T10:54:41;10.20;1.00
9800;DHT22;4939;52.00085300;4.17406100;2023-04-03T10:57:11;10.50;1.00
9800;DHT22;4939;52.00085300;4.17406100;2023-04-03T10:59:53;10.40;1.00
9800;DHT22;4939;52.00085300;4.17406100;2023-04-03T11:02:27;10.80;1.00
9800;DHT22;4939;52.00085300;4.17406100;2023-04-03T11:07:45;11.30;97.50
9800;DHT22;4939;52.00085300;4.17406100;2023-04-03T11:10:20;11.60;99.90
9800;DHT22;4939;52.00085300;4.17406100;2023-04-03T11:12:56;11.40;1.00
9800;DHT22;4939;52.00085300;4.17406100;2023-04-03T11:15:25;11.30;47.60
9800;DHT22;4939;52.00085300;4.17406100;2023-04-03T11:18:01;11.10;1.00
9800;DHT22;4939;52.00085300;4.17406100;2023-04-03T11:20:32;11.00;1.00
9800;DHT22;4939;52.00085300;4.17406100;2023-04-03T11:23:21;10.80;1.00
9800;DHT22;4939;52.00085300;4.17406100;2023-04-03T11:25:52;10.80;1.00
9800;DHT22;4939;52.00085300;4.17406100;2023-04-03T11:28:19;11.30;1.00
9800;DHT22;4939;52.00085300;4.17406100;2023-04-03T11:31:02;11.20;1.00
9800;DHT22;4939;52.00085300;4.17406100;2023-04-03T11:36:13;11.40;1.00
9800;DHT22;4939;52.00085300;4.17406100;2023-04-03T11:38:46;11.60;1.00
9800;DHT22;4939;52.00085300;4.17406100;2023-04-03T11:41:13;11.40;1.00
9800;DHT22;4939;52.00085300;4.17406100;2023-04-03T11:43:57;11.50;1.00
9800;DHT22;4939;52.00085300;4.17406100;2023-04-03T11:46:53;11.60;1.00
9800;DHT22;4939;52.00085300;4.17406100;2023-04-03T11:49:51;11.40;1.00
9800;DHT22;4939;52.00085300;4.17406100;2023-04-03T12:03:32;11.10;1.00
9800;DHT22;4939;52.00085300;4.17406100;2023-04-03T12:13:38;11.10;1.00
9800;DHT22;4939;52.00085300;4.17406100;2023-04-03T12:16:07;11.00;1.00
9800;DHT22;4939;52.00085300;4.17406100;2023-04-03T12:21:17;10.90;99.90
9800;DHT22;4939;52.00085300;4.17406100;2023-04-03T12:26:51;10.80;99.90
9800;DHT22;4939;52.00085300;4.17406100;2023-04-03T12:34:53;10.90;99.90
9800;DHT22;4939;52.00085300;4.17406100;2023-04-03T12:39:59;10.90;99.90
9800;DHT22;4939;52.00085300;4.17406100;2023-04-03T12:45:22;10.90;99.90
9800;DHT22;4939;52.00085300;4.17406100;2023-04-03T12:47:51;10.90;99.90
9800;DHT22;4939;52.00085300;4.17406100;2023-04-03T12:50:24;10.90;99.90
9800;DHT22;4939;52.00085300;4.17406100;2023-04-03T12:53:07;10.70;99.90
9800;DHT22;4939;52.00085300;4.17406100;2023-04-03T12:55:36;10.90;99.90
9800;DHT22;4939;52.00085300;4.17406100;2023-04-03T12:58:22;11.00;99.90
9800;DHT22;4939;52.00085300;4.17406100;2023-04-03T13:03:27;11.00;99.90
9800;DHT22;4939;52.00085300;4.17406100;2023-04-03T13:06:00;11.10;99.90
9800;DHT22;4939;52.00085300;4.17406100;2023-04-03T13:08:27;11.10;99.90
9800;DHT22;4939;52.00085300;4.17406100;2023-04-03T13:11:07;11.10;99.90
9800;DHT22;4939;52.00085300;4.17406100;2023-04-03T13:13:34;11.00;99.90
9800;DHT22;4939;52.00085300;4.17406100;2023-04-03T13:15:59;11.30;99.90
9800;DHT22;4939;52.00085300;4.17406100;2023-04-03T13:18:34;11.20;99.90
9800;DHT22;4939;52.00085300;4.17406100;2023-04-03T13:23:33;11.50;99.90
9800;DHT22;4939;52.00085300;4.17406100;2023-04-03T13:26:00;11.60;99.90
9800;DHT22;4939;52.00085300;4.17406100;2023-04-03T13:28:30;11.70;99.90
9800;DHT22;4939;52.00085300;4.17406100;2023-04-03T13:30:59;11.40;99.90
9800;DHT22;4939;52.00085300;4.17406100;2023-04-03T13:33:30;11.40;99.90
9800;DHT22;4939;52.00085300;4.17406100;2023-04-03T13:36:04;11.50;99.90
9800;DHT22;4939;52.00085300;4.17406100;2023-04-03T13:38:31;11.70;99.90
9800;DHT22;4939;52.00085300;4.17406100;2023-04-03T13:41:02;11.80;99.90
9800;DHT22;4939;52.00085300;4.17406100;2023-04-03T13:43:36;11.50;99.90
9800;DHT22;4939;52.00085300;4.17406100;2023-04-03T13:46:24;11.80;99.90
9800;DHT22;4939;52.00085300;4.17406100;2023-04-03T13:48:52;12.10;99.90
9800;DHT22;4939;52.00085300;4.17406100;2023-04-03T13:51:22;12.20;99.90
9800;DHT22;4939;52.00085300;4.17406100;2023-04-03T13:53:59;12.10;99.90
9800;DHT22;4939;52.00085300;4.17406100;2023-04-03T13:56:37;12.10;99.90
9800;DHT22;4939;52.00085300;4.17406100;2023-04-03T13:59:23;12.20;99.90
9800;DHT22;4939;52.00085300;4.17406100;2023-04-03T14:02:13;12.30;99.90
9800;DHT22;4939;52.00085300;4.17406100;2023-04-03T14:04:45;12.40;99.90
9800;DHT22;4939;52.00085300;4.17406100;2023-04-03T14:07:15;12.70;99.90
9800;DHT22;4939;52.00085300;4.17406100;2023-04-03T14:09:41;12.80;99.90
9800;DHT22;4939;52.00085300;4.17406100;2023-04-03T14:12:25;12.80;99.90
9800;DHT22;4939;52.00085300;4.17406100;2023-04-03T14:14:52;12.70;99.90
9800;DHT22;4939;52.00085300;4.17406100;2023-04-03T14:17:21;12.70;99.90
9800;DHT22;4939;52.00085300;4.17406100;2023-04-03T14:19:49;13.00;99.90
9800;DHT22;4939;52.00085300;4.17406100;2023-04-03T14:22:30;13.00;99.90
9800;DHT22;4939;52.00085300;4.17406100;2023-04-03T14:24:56;12.70;99.90
9800;DHT22;4939;52.00085300;4.17406100;2023-04-03T14:27:29;12.80;99.90
9800;DHT22;4939;52.00085300;4.17406100;2023-04-03T14:29:57;12.90;99.90
9800;DHT22;4939;52.00085300;4.17406100;2023-04-03T14:32:27;12.70;99.90
9800;DHT22;4939;52.00085300;4.17406100;2023-04-03T14:34:53;12.70;99.90
9800;DHT22;4939;52.00085300;4.17406100;2023-04-03T14:37:25;13.00;99.90
9800;DHT22;4939;52.00085300;4.17406100;2023-04-03T14:39:52;13.10;99.90
9800;DHT22;4939;52.00085300;4.17406100;2023-04-03T14:42:25;13.30;99.90
9800;DHT22;4939;52.00085300;4.17406100;2023-04-03T14:44:52;13.10;99.90
9800;DHT22;4939;52.00085300;4.17406100;2023-04-03T14:47:23;13.10;99.90
9800;DHT22;4939;52.00085300;4.17406100;2023-04-03T14:49:50;13.40;99.90
9800;DHT22;4939;52.00085300;4.17406100;2023-04-03T14:52:20;13.50;99.90
9800;DHT22;4939;52.00085300;4.17406100;2023-04-03T14:54:47;13.50;99.90
9800;DHT22;4939;52.00085300;4.17406100;2023-04-03T14:57:14;13.50;99.90
9800;DHT22;4939;52.00085300;4.17406100;2023-04-03T14:59:42;13.50;99.90
9800;DHT22;4939;52.00085300;4.17406100;2023-04-03T15:02:31;13.60;99.90
9800;DHT22;4939;52.00085300;4.17406100;2023-04-03T15:04:58;13.60;99.90
9800;DHT22;4939;52.00085300;4.17406100;2023-04-03T15:07:27;13.50;99.90
9800;DHT22;4939;52.00085300;4.17406100;2023-04-03T15:09:54;13.70;99.90
9800;DHT22;4939;52.00085300;4.17406100;2023-04-03T15:12:22;13.40;99.90
9800;DHT22;4939;52.00085300;4.17406100;2023-04-03T15:14:48;13.40;99.90
9800;DHT22;4939;52.00085300;4.17406100;2023-04-03T15:17:18;13.50;99.90
9800;DHT22;4939;52.00085300;4.17406100;2023-04-03T15:19:45;13.30;99.90
9800;DHT22;4939;52.00085300;4.17406100;2023-04-03T15:22:16;13.50;99.90
9800;DHT22;4939;52.00085300;4.17406100;2023-04-03T15:24:43;13.60;99.90
9800;DHT22;4939;52.00085300;4.17406100;2023-04-03T15:27:11;13.40;99.90
9800;DHT22;4939;52.00085300;4.17406100;2023-04-03T15:29:40;13.30;96.80
9800;DHT22;4939;52.00085300;4.17406100;2023-04-03T15:32:07;13.30;44.20
9800;DHT22;4939;52.00085300;4.17406100;2023-04-03T15:34:34;13.50;99.70
9800;DHT22;4939;52.00085300;4.17406100;2023-04-03T15:37:00;13.50;84.00
9800;DHT22;4939;52.00085300;4.17406100;2023-04-03T15:39:26;13.40;64.90
9800;DHT22;4939;52.00085300;4.17406100;2023-04-03T15:41:52;13.40;50.00
9800;DHT22;4939;52.00085300;4.17406100;2023-04-03T15:44:19;13.50;78.60
9800;DHT22;4939;52.00085300;4.17406100;2023-04-03T15:46:49;13.50;75.50
9800;DHT22;4939;52.00085300;4.17406100;2023-04-03T15:49:17;13.60;83.50
9800;DHT22;4939;52.00085300;4.17406100;2023-04-03T15:51:43;13.50;50.50
9800;DHT22;4939;52.00085300;4.17406100;2023-04-03T15:54:09;13.80;88.30
9800;DHT22;4939;52.00085300;4.17406100;2023-04-03T15:56:35;13.60;75.90
9800;DHT22;4939;52.00085300;4.17406100;2023-04-03T15:59:00;13.70;60.40
9800;DHT22;4939;52.00085300;4.17406100;2023-04-03T16:01:26;13.70;50.00
9800;DHT22;4939;52.00085300;4.17406100;2023-04-03T16:03:52;13.60;23.10
9800;DHT22;4939;52.00085300;4.17406100;2023-04-03T16:06:18;13.40;1.00
9800;DHT22;4939;52.00085300;4.17406100;2023-04-03T16:08:44;13.30;1.00
9800;DHT22;4939;52.00085300;4.17406100;2023-04-03T16:11:11;13.40;1.00
9800;DHT22;4939;52.00085300;4.17406100;2023-04-03T16:13:37;13.30;1.00